Time;durP1;ratioP1;P1;durP2;ratioP2;P2;SDS_P1;SDS_P2;PMS_P1;PMS_P2;Temp;Humidity;BMP_temperature;BMP_pressure;BME280_temperature;BME280_humidity;BME280_pressure;Samples;Min_cycle;Max_cycle;Signal;HPM_P1;HPM_P2
2021/04/11 00:00:16;;;;;;;1999.90;999.90;;;16.50;97.90;;;;;;5137144;27;20224;-45
2021/04/11 00:02:43;;;;;;;1999.90;999.90;;;16.50;98.20;;;;;;5136970;27;20189;-47
2021/04/11 00:05:12;;;;;;;1999.90;999.90;;;16.50;98.40;;;;;;5137032;27;20173;-46
2021/04/11 00:07:39;;;;;;;1999.90;999.90;;;16.50;98.60;;;;;;5136961;27;20162;-49
2021/04/11 00:10:18;;;;;;;1999.90;999.90;;;16.50;98.40;;;;;;5137093;27;20162;-45
2021/04/11 00:12:45;;;;;;;1999.90;999.90;;;16.50;98.50;;;;;;5136687;27;20663;-45
2021/04/11 00:15:14;;;;;;;1999.90;999.90;;;16.40;98.50;;;;;;5136884;27;20162;-47
2021/04/11 00:17:41;;;;;;;1999.90;999.90;;;16.40;98.40;;;;;;5136725;27;20171;-45
2021/04/11 00:20:08;;;;;;;1999.90;999.90;;;16.40;98.30;;;;;;5136720;27;20301;-45
2021/04/11 00:22:35;;;;;;;1999.90;999.90;;;16.40;98.40;;;;;;5136748;27;20231;-47
2021/04/11 00:25:06;;;;;;;1999.90;999.90;;;16.40;98.50;;;;;;5136693;27;20170;-45
2021/04/11 00:27:32;;;;;;;1999.90;999.90;;;16.40;98.80;;;;;;5136649;27;20209;-48
2021/04/11 00:29:59;;;;;;;1999.90;999.90;;;16.30;99.00;;;;;;5136577;27;20204;-46
2021/04/11 00:32:26;;;;;;;1999.90;999.90;;;16.30;99.10;;;;;;5136449;27;20194;-45
2021/04/11 00:34:53;;;;;;;1999.90;999.90;;;16.30;99.00;;;;;;5136422;27;20644;-47
2021/04/11 00:37:20;;;;;;;1999.90;999.90;;;16.40;99.10;;;;;;5136469;27;20159;-46
2021/04/11 00:39:46;;;;;;;1999.90;999.90;;;16.30;99.30;;;;;;5136401;27;20194;-46
2021/04/11 00:42:40;;;;;;;1999.90;999.90;;;16.30;99.30;;;;;;5136272;27;20208;-50
2021/04/11 00:45:12;;;;;;;1999.90;999.90;;;16.30;99.20;;;;;;5130055;27;20179;-48
2021/04/11 00:47:41;;;;;;;1999.90;999.90;;;16.20;99.40;;;;;;5136466;27;20620;-45
2021/04/11 00:50:11;;;;;;;1999.90;999.90;;;16.00;99.10;;;;;;5136336;27;20165;-45
2021/04/11 00:52:38;;;;;;;1999.90;999.90;;;15.90;99.50;;;;;;5136294;27;20660;-48
2021/04/11 00:55:06;;;;;;;1999.90;999.90;;;15.90;99.50;;;;;;5136103;27;20629;-44
2021/04/11 00:57:33;;;;;;;1999.90;999.90;;;16.00;99.60;;;;;;5136008;27;20254;-44
2021/04/11 01:00:01;;;;;;;1999.90;999.90;;;16.00;99.60;;;;;;5135933;27;20246;-48
2021/04/11 01:02:28;;;;;;;1999.90;999.90;;;16.10;99.10;;;;;;5135757;27;20182;-45
2021/04/11 01:04:55;;;;;;;1999.90;999.90;;;16.10;98.90;;;;;;5134743;27;20223;-46
2021/04/11 01:07:24;;;;;;;1999.90;999.90;;;16.10;99.00;;;;;;5135785;27;20177;-45
2021/04/11 01:09:52;;;;;;;1999.90;999.90;;;16.10;99.00;;;;;;5135792;27;20211;-45
2021/04/11 01:12:21;;;;;;;1999.90;999.90;;;16.10;99.00;;;;;;5135591;27;20587;-45
2021/04/11 01:14:50;;;;;;;1999.90;999.90;;;16.10;99.10;;;;;;5135674;27;20181;-45
2021/04/11 01:17:22;;;;;;;1999.90;999.90;;;16.00;98.50;;;;;;5135643;27;20257;-45
2021/04/11 01:19:52;;;;;;;1999.90;999.90;;;16.00;98.30;;;;;;5135355;27;20230;-45
2021/04/11 01:22:50;;;;;;;1999.90;999.90;;;15.90;98.50;;;;;;5135654;27;20186;-45
2021/04/11 01:25:21;;;;;;;1999.90;999.90;;;15.90;98.50;;;;;;5135612;27;20231;-45
2021/04/11 01:27:48;;;;;;;1999.90;999.90;;;15.90;98.40;;;;;;5135385;27;20159;-46
2021/04/11 01:30:19;;;;;;;1999.90;999.90;;;15.90;98.50;;;;;;5135365;27;20215;-45
2021/04/11 01:32:49;;;;;;;1999.90;999.90;;;15.90;98.60;;;;;;5135248;27;20281;-46
2021/04/11 01:35:18;;;;;;;1999.90;999.90;;;15.80;98.80;;;;;;5135374;27;20162;-45
2021/04/11 01:37:45;;;;;;;1999.90;999.90;;;15.80;99.10;;;;;;5135333;27;20645;-45
2021/04/11 01:40:16;;;;;;;1999.90;999.90;;;15.70;99.20;;;;;;5135303;27;20162;-44
2021/04/11 01:42:43;;;;;;;1999.90;999.90;;;15.80;99.10;;;;;;5135273;27;20166;-46
2021/04/11 01:45:13;;;;;;;1999.90;999.90;;;15.80;99.40;;;;;;5135202;27;20219;-46
2021/04/11 01:47:41;;;;;;;1999.90;999.90;;;15.70;99.70;;;;;;5135201;27;20167;-46
2021/04/11 01:50:13;;;;;;;1999.90;999.90;;;15.70;99.60;;;;;;5134995;27;20261;-46
2021/04/11 01:52:42;;;;;;;1999.90;999.90;;;15.80;99.60;;;;;;5134939;27;20211;-46
2021/04/11 01:55:10;;;;;;;1999.90;999.90;;;15.70;99.60;;;;;;5134826;27;20219;-46
2021/04/11 01:57:39;;;;;;;1999.90;999.90;;;15.60;99.60;;;;;;5134814;27;20166;-47
2021/04/11 02:00:14;;;;;;;1999.90;999.90;;;15.70;99.90;;;;;;5134796;27;20158;-46
2021/04/11 02:02:41;;;;;;;1999.90;999.90;;;15.70;99.80;;;;;;5134819;27;20245;-46
2021/04/11 02:05:18;;;;;;;1999.90;999.90;;;15.60;99.80;;;;;;5134748;27;20178;-44
2021/04/11 02:07:46;;;;;;;1999.90;999.90;;;15.60;99.80;;;;;;5134801;27;20193;-47
2021/04/11 02:10:19;;;;;;;1999.90;999.90;;;15.50;99.90;;;;;;5134616;27;20671;-46
2021/04/11 02:12:47;;;;;;;1999.90;999.90;;;15.50;99.90;;;;;;5134762;27;20190;-46
2021/04/11 02:15:29;;;;;;;1999.90;999.90;;;15.50;99.90;;;;;;5134662;27;20530;-47
2021/04/11 02:17:58;;;;;;;1999.90;999.90;;;15.50;99.90;;;;;;5134350;27;20298;-45
2021/04/11 02:20:28;;;;;;;1999.90;999.90;;;15.50;99.90;;;;;;5134273;27;20198;-44
2021/04/11 02:22:56;;;;;;;1999.90;999.90;;;15.50;99.90;;;;;;5134494;27;20583;-50
2021/04/11 02:25:26;;;;;;;1999.90;999.90;;;15.50;99.90;;;;;;5134330;27;20632;-46
2021/04/11 02:27:55;;;;;;;1999.90;999.90;;;15.50;99.90;;;;;;5134313;27;20186;-45
2021/04/11 02:30:24;;;;;;;1999.90;999.90;;;15.40;99.90;;;;;;5134252;27;20166;-48
2021/04/11 02:32:52;;;;;;;1999.90;999.90;;;15.50;99.90;;;;;;5134148;27;20198;-49
2021/04/11 02:35:25;;;;;;;1999.90;999.90;;;15.40;99.90;;;;;;5134220;27;20697;-44
2021/04/11 02:37:58;;;;;;;1999.90;999.90;;;15.40;99.90;;;;;;5134243;27;20157;-46
2021/04/11 02:40:30;;;;;;;1999.90;999.90;;;15.30;99.90;;;;;;5134140;27;20238;-49
2021/04/11 02:42:59;;;;;;;1999.90;999.90;;;15.30;99.90;;;;;;5134098;27;20550;-52
2021/04/11 02:45:30;;;;;;;1999.90;999.90;;;15.30;99.90;;;;;;5134092;27;20682;-49
2021/04/11 02:47:57;;;;;;;1999.90;999.90;;;15.30;99.90;;;;;;5134048;27;20154;-48
2021/04/11 02:50:26;;;;;;;1999.90;999.90;;;15.20;99.90;;;;;;5133961;27;20159;-48
2021/04/11 02:53:02;;;;;;;1999.90;999.90;;;15.20;99.90;;;;;;5133902;27;20229;-45
2021/04/11 02:55:34;;;;;;;1999.90;999.90;;;15.20;99.90;;;;;;5134083;27;20177;-47
2021/04/11 02:58:01;;;;;;;1999.90;999.90;;;15.20;99.90;;;;;;5134079;27;20200;-51
2021/04/11 03:00:31;;;;;;;1999.90;999.90;;;15.20;99.90;;;;;;5134103;27;20178;-45
2021/04/11 03:02:58;;;;;;;1999.90;999.90;;;15.10;99.90;;;;;;5133808;27;20655;-44
2021/04/11 03:05:26;;;;;;;1999.90;999.90;;;15.20;99.90;;;;;;5133824;27;20173;-47
2021/04/11 03:08:06;;;;;;;1999.90;999.90;;;15.20;99.90;;;;;;5133828;27;20303;-44
2021/04/11 03:11:09;;;;;;;1999.90;999.90;;;15.20;99.90;;;;;;5133760;27;20163;-46
2021/04/11 03:13:39;;;;;;;1999.90;999.90;;;15.20;99.90;;;;;;5133690;28;20189;-44
2021/04/11 03:16:06;;;;;;;1999.90;999.90;;;15.30;99.90;;;;;;5133736;28;20629;-47
2021/04/11 03:18:33;;;;;;;1999.90;999.90;;;15.40;99.90;;;;;;5133573;27;20228;-46
2021/04/11 03:21:03;;;;;;;1999.90;999.90;;;15.30;99.90;;;;;;5133809;27;20541;-44
2021/04/11 03:23:32;;;;;;;1999.90;999.90;;;15.30;99.90;;;;;;5133693;27;20163;-48
2021/04/11 03:26:28;;;;;;;1999.90;999.90;;;15.40;99.90;;;;;;5133685;27;20173;-45
2021/04/11 03:29:06;;;;;;;1999.90;999.90;;;15.30;99.90;;;;;;5111301;27;20178;-46
2021/04/11 03:31:41;;;;;;;1999.90;999.90;;;15.20;99.90;;;;;;5137662;27;20154;-47
2021/04/11 03:34:10;;;;;;;1999.90;999.90;;;15.20;99.90;;;;;;5137654;27;20162;-46
2021/04/11 03:36:39;;;;;;;1999.90;999.90;;;15.20;99.90;;;;;;5137636;27;20640;-45
2021/04/11 03:39:08;;;;;;;1999.90;999.90;;;15.20;99.90;;;;;;5137550;27;20637;-45
2021/04/11 03:41:37;;;;;;;1999.90;999.90;;;15.20;99.90;;;;;;5137508;27;20660;-45
2021/04/11 03:44:17;;;;;;;1999.90;999.90;;;15.30;99.90;;;;;;5137489;27;20181;-46
2021/04/11 03:47:12;;;;;;;1999.90;999.90;;;15.20;99.90;;;;;;5137467;27;20162;-45
2021/04/11 03:49:44;;;;;;;1999.90;999.90;;;15.20;99.90;;;;;;5137411;27;20158;-46
2021/04/11 03:52:22;;;;;;;1999.90;999.90;;;15.10;99.80;;;;;;5137214;27;20198;-45
2021/04/11 03:54:49;;;;;;;1999.90;999.90;;;15.10;99.70;;;;;;5137308;27;20158;-45
2021/04/11 03:57:29;;;;;;;1999.90;999.90;;;15.00;99.60;;;;;;5137210;27;20159;-45
2021/04/11 04:00:12;;;;;;;1999.90;999.90;;;15.00;99.80;;;;;;5137343;27;20177;-46
2021/04/11 04:02:41;;;;;;;1999.90;999.90;;;14.90;99.80;;;;;;5137216;27;20237;-45
2021/04/11 04:05:13;;;;;;;1999.90;999.90;;;14.90;99.90;;;;;;5137211;27;20163;-46
2021/04/11 04:07:52;;;;;;;1999.90;999.90;;;14.80;99.90;;;;;;5137125;27;20173;-45
2021/04/11 04:10:22;;;;;;;1999.90;999.90;;;14.70;99.90;;;;;;5137005;27;20158;-45
2021/04/11 04:13:25;;;;;;;1999.90;999.90;;;14.70;99.90;;;;;;5136849;27;20283;-44
2021/04/11 04:16:13;;;;;;;1999.90;999.90;;;14.60;99.90;;;;;;5136790;27;20201;-44
2021/04/11 04:18:46;;;;;;;1999.90;999.90;;;14.60;99.90;;;;;;5136593;27;20214;-44
2021/04/11 04:21:43;;;;;;;1999.90;999.90;;;14.70;99.90;;;;;;5136761;27;20170;-46
2021/04/11 04:24:28;;;;;;;1999.90;999.90;;;14.70;99.90;;;;;;5136709;27;20613;-45
2021/04/11 04:27:30;;;;;;;1999.90;999.90;;;14.60;99.90;;;;;;5136734;27;20147;-44
2021/04/11 04:30:30;;;;;;;1999.90;999.90;;;14.60;99.90;;;;;;5136615;27;20166;-48
2021/04/11 04:33:23;;;;;;;1999.90;999.90;;;14.60;99.90;;;;;;5136482;27;20190;-44
2021/04/11 04:35:58;;;;;;;1999.90;999.90;;;14.50;99.90;;;;;;5136404;27;20238;-45
2021/04/11 04:38:50;;;;;;;1999.90;999.90;;;14.60;99.90;;;;;;5136532;27;20166;-45
2021/04/11 04:41:20;;;;;;;1999.90;999.90;;;14.70;99.90;;;;;;5136394;27;20204;-44
2021/04/11 04:44:00;;;;;;;1999.90;999.90;;;14.60;99.90;;;;;;5136355;27;20150;-44
2021/04/11 04:46:40;;;;;;;1999.90;999.90;;;14.60;99.90;;;;;;5136538;27;20193;-43
2021/04/11 04:49:21;;;;;;;1999.90;999.90;;;14.50;99.90;;;;;;5136309;27;20167;-43
2021/04/11 04:51:53;;;;;;;1999.90;999.90;;;14.50;99.90;;;;;;5136159;27;20190;-44
2021/04/11 04:54:34;;;;;;;1999.90;999.90;;;14.30;99.90;;;;;;5136028;27;20173;-45
2021/04/11 04:57:29;;;;;;;1999.90;999.90;;;14.40;99.90;;;;;;5136173;27;20151;-47
2021/04/11 05:00:19;;;;;;;1999.90;999.90;;;14.50;99.90;;;;;;5136180;27;20159;-44
2021/04/11 05:03:11;;;;;;;1999.90;999.90;;;14.60;99.90;;;;;;5135717;27;20178;-45
2021/04/11 05:05:59;;;;;;;1999.90;999.90;;;14.60;99.90;;;;;;5135897;27;20158;-44
2021/04/11 05:08:54;;;;;;;1999.90;999.90;;;14.60;99.90;;;;;;5135983;27;20147;-45
2021/04/11 05:11:28;;;;;;;1999.90;999.90;;;14.50;99.90;;;;;;5135851;27;20165;-45
2021/04/11 05:14:05;;;;;;;1999.90;999.90;;;14.50;99.90;;;;;;5135983;27;20178;-44
2021/04/11 05:16:49;;;;;;;1999.90;999.90;;;14.50;99.90;;;;;;5135843;27;20194;-44
2021/04/11 05:19:25;;;;;;;1999.90;999.90;;;14.50;99.90;;;;;;5135456;27;20269;-44
2021/04/11 05:22:02;;;;;;;1999.90;999.90;;;14.60;99.90;;;;;;5135448;27;20521;-46
2021/04/11 05:24:41;;;;;;;1999.90;999.90;;;14.60;99.90;;;;;;5135576;27;20238;-44
2021/04/11 05:27:34;;;;;;;1999.90;999.90;;;14.70;99.90;;;;;;5135531;27;20147;-45
2021/04/11 05:30:10;;;;;;;1999.90;999.90;;;14.70;99.90;;;;;;5111357;27;20210;-43
2021/04/11 05:32:37;;;;;;;1999.90;999.90;;;14.70;99.90;;;;;;5135327;27;20190;-44
2021/04/11 05:35:05;;;;;;;1999.90;999.90;;;14.70;99.90;;;;;;5135059;27;20173;-44
2021/04/11 05:37:46;;;;;;;1999.90;999.90;;;14.80;99.90;;;;;;5135384;27;20171;-44
2021/04/11 05:40:15;;;;;;;1999.90;999.90;;;14.80;99.90;;;;;;5134969;27;20573;-44
2021/04/11 05:42:54;;;;;;;1999.90;999.90;;;14.80;99.90;;;;;;5134500;27;20166;-44
2021/04/11 05:45:27;;;;;;;1999.90;999.90;;;14.60;99.90;;;;;;5134513;27;20566;-47
2021/04/11 05:48:27;;;;;;;1999.90;999.90;;;14.70;99.90;;;;;;5134504;27;20959;-45
2021/04/11 05:51:10;;;;;;;1999.90;999.90;;;14.70;99.90;;;;;;5133941;27;20189;-44
2021/04/11 05:53:52;;;;;;;1999.90;999.90;;;14.80;99.90;;;;;;5134363;27;20196;-44
2021/04/11 05:56:27;;;;;;;1999.90;999.90;;;14.90;99.90;;;;;;5134433;27;20721;-44
2021/04/11 05:59:04;;;;;;;1999.90;999.90;;;15.00;99.90;;;;;;5134239;27;20165;-44
2021/04/11 06:01:38;;;;;;;1999.90;999.90;;;15.10;99.90;;;;;;5134166;27;20504;-46
2021/04/11 06:04:10;;;;;;;1999.90;999.90;;;15.20;99.90;;;;;;5134416;27;20208;-44
2021/04/11 06:07:12;;;;;;;1999.90;999.90;;;15.20;99.90;;;;;;5134316;27;20163;-47
2021/04/11 06:09:49;;;;;;;1999.90;999.90;;;15.30;99.90;;;;;;5070928;28;20180;-45
2021/04/11 06:12:28;;;;;;;1999.90;999.90;;;15.40;99.90;;;;;;5126520;27;20292;-45
2021/04/11 06:15:16;;;;;;;1999.90;999.90;;;15.50;99.90;;;;;;5132808;27;20163;-48
2021/04/11 06:17:49;;;;;;;1999.90;999.90;;;15.60;99.90;;;;;;5133932;27;20162;-46
2021/04/11 06:20:17;;;;;;;1999.90;999.90;;;15.70;99.90;;;;;;5133675;27;20362;-49
2021/04/11 06:22:57;;;;;;;1999.90;999.90;;;15.80;99.80;;;;;;5133817;27;20173;-46
2021/04/11 06:25:42;;;;;;;1999.90;999.90;;;15.90;99.60;;;;;;5133955;27;20617;-46
2021/04/11 06:28:27;;;;;;;1999.90;999.90;;;16.10;99.20;;;;;;5133999;27;20214;-48
2021/04/11 06:31:04;;;;;;;1999.90;999.90;;;16.10;99.10;;;;;;5133469;27;20170;-48
2021/04/11 06:33:44;;;;;;;1999.90;999.90;;;16.20;99.10;;;;;;5133516;27;20194;-46
2021/04/11 06:36:18;;;;;;;1999.90;999.90;;;16.30;99.20;;;;;;5133607;27;20159;-50
2021/04/11 06:38:53;;;;;;;1999.90;999.90;;;16.40;98.90;;;;;;5133313;27;20201;-47
2021/04/11 06:41:56;;;;;;;1999.90;999.90;;;16.50;98.70;;;;;;5133520;27;20639;-46
2021/04/11 06:44:56;;;;;;;1999.90;999.90;;;16.60;98.80;;;;;;5133523;27;20162;-47
2021/04/11 06:47:38;;;;;;;1999.90;999.90;;;16.80;98.30;;;;;;5133305;27;20242;-47
2021/04/11 06:50:14;;;;;;;1999.90;999.90;;;16.90;97.90;;;;;;5133412;27;20355;-47
2021/04/11 06:52:55;;;;;;;1999.90;999.90;;;17.10;98.00;;;;;;5133110;27;20204;-46
2021/04/11 06:55:36;;;;;;;1999.90;999.90;;;17.20;97.70;;;;;;5133375;27;20522;-49
2021/04/11 06:58:15;;;;;;;1999.90;999.90;;;17.30;97.40;;;;;;5133286;27;20162;-47
2021/04/11 07:00:51;;;;;;;1999.90;999.90;;;17.40;97.40;;;;;;5133145;27;20186;-50
2021/04/11 07:04:08;;;;;;;1999.90;999.90;;;17.30;96.90;;;;;;5133986;27;20158;-47
2021/04/11 07:06:57;;;;;;;1999.90;999.90;;;17.60;96.80;;;;;;5136322;27;20219;-46
2021/04/11 07:10:11;;;;;;;1999.90;999.90;;;17.70;97.10;;;;;;5137476;27;20190;-46
2021/04/11 07:13:08;;;;;;;1999.90;999.90;;;17.80;96.70;;;;;;5081584;27;20326;-48
2021/04/11 07:15:56;;;;;;;1999.90;999.90;;;18.00;96.30;;;;;;5137104;27;20178;-46
2021/04/11 07:19:00;;;;;;;1999.90;999.90;;;18.10;96.40;;;;;;5137060;27;20241;-46
2021/04/11 07:21:33;;;;;;;1999.90;999.90;;;18.30;95.70;;;;;;5137134;27;20166;-46
2021/04/11 07:24:33;;;;;;;1999.90;999.90;;;18.50;95.30;;;;;;5136854;27;20198;-47
2021/04/11 07:27:34;;;;;;;1999.90;999.90;;;18.80;94.50;;;;;;5136973;27;20163;-46
2021/04/11 07:30:13;;;;;;;1999.90;999.90;;;19.10;93.60;;;;;;5136791;27;20161;-46
2021/04/11 07:33:10;;;;;;;1999.90;999.90;;;19.30;91.60;;;;;;5136705;27;20679;-47
2021/04/11 07:35:52;;;;;;;1999.90;999.90;;;19.60;91.00;;;;;;5136764;27;20155;-47
2021/04/11 07:38:47;;;;;;;1999.90;999.90;;;19.80;90.00;;;;;;5137114;27;20158;-46
2021/04/11 07:41:38;;;;;;;1999.90;999.90;;;20.10;87.80;;;;;;5137126;27;20367;-47
2021/04/11 07:44:31;;;;;;;1999.90;999.90;;;20.50;86.10;;;;;;5137089;27;20242;-49
2021/04/11 07:47:26;;;;;;;1999.90;999.90;;;20.80;81.40;;;;;;5137141;27;20155;-48
2021/04/11 07:50:20;;;;;;;1999.90;999.90;;;21.00;81.00;;;;;;5137387;27;20163;-47
2021/04/11 07:53:06;;;;;;;1999.90;999.90;;;21.30;78.70;;;;;;5137127;27;20237;-49
2021/04/11 07:55:41;;;;;;;1999.90;999.90;;;21.70;77.00;;;;;;5137234;27;20254;-52
2021/04/11 07:58:14;;;;;;;1999.90;999.90;;;21.90;74.90;;;;;;5137059;27;20161;-49
2021/04/11 08:00:53;;;;;;;1999.90;999.90;;;22.10;72.40;;;;;;5137266;27;20170;-49
2021/04/11 08:03:43;;;;;;;1999.90;999.90;;;22.30;71.90;;;;;;5137058;27;20189;-47
2021/04/11 08:06:20;;;;;;;1999.90;999.90;;;22.90;70.50;;;;;;5137065;27;20155;-46
2021/04/11 08:09:11;;;;;;;1999.90;999.90;;;23.10;67.60;;;;;;5137062;27;20160;-49
2021/04/11 08:12:08;;;;;;;1999.90;999.90;;;23.30;65.80;;;;;;5136851;27;20643;-46
2021/04/11 08:15:12;;;;;;;1999.90;999.90;;;23.50;64.40;;;;;;5114206;27;20183;-46
2021/04/11 08:17:52;;;;;;;1999.90;999.90;;;23.50;63.90;;;;;;5136793;27;20167;-46
2021/04/11 08:20:38;;;;;;;1999.90;999.90;;;24.10;62.90;;;;;;5136511;27;20214;-46
2021/04/11 08:23:23;;;;;;;1999.90;999.90;;;24.70;60.60;;;;;;5136740;27;20671;-48
2021/04/11 08:25:50;;;;;;;1999.90;999.90;;;25.30;58.70;;;;;;5136426;27;20159;-46
2021/04/11 08:28:44;;;;;;;1999.90;999.90;;;25.70;57.20;;;;;;5136418;27;20185;-45
2021/04/11 08:31:35;;;;;;;1999.90;999.90;;;26.20;55.30;;;;;;5136454;27;20162;-46
2021/04/11 08:34:11;;;;;;;1999.90;999.90;;;26.70;53.70;;;;;;5136352;27;20625;-45
2021/04/11 08:37:04;;;;;;;1999.90;999.90;;;27.30;52.30;;;;;;5136490;27;20176;-47
2021/04/11 08:39:49;;;;;;;1999.90;999.90;;;27.60;50.30;;;;;;5133852;27;20185;-49
2021/04/11 08:42:54;;;;;;;1999.90;999.90;;;28.00;49.70;;;;;;5136493;27;20495;-48
2021/04/11 08:45:42;;;;;;;1999.90;999.90;;;28.50;48.60;;;;;;5136370;27;20155;-49
2021/04/11 08:48:44;;;;;;;1999.90;999.90;;;28.50;47.70;;;;;;5136301;27;20611;-48
2021/04/11 08:51:24;;;;;;;1999.90;999.90;;;28.60;47.10;;;;;;5136136;27;20158;-46
2021/04/11 08:54:08;;;;;;;1999.90;999.90;;;28.80;46.30;;;;;;5136130;27;20641;-47
2021/04/11 08:56:45;;;;;;;1999.90;999.90;;;28.90;45.70;;;;;;5136057;27;20242;-48
2021/04/11 08:59:24;;;;;;;1999.90;999.90;;;29.30;44.90;;;;;;5136019;27;20251;-47
2021/04/11 09:01:56;;;;;;;1999.90;999.90;;;29.60;44.30;;;;;;5136039;27;20150;-48
2021/04/11 09:04:29;;;;;;;1999.90;999.90;;;29.80;43.80;;;;;;5134555;27;20166;-47
2021/04/11 09:07:14;;;;;;;1999.90;999.90;;;29.70;42.90;;;;;;5136017;27;20617;-47
2021/04/11 09:10:28;;;;;;;1999.90;999.90;;;29.80;42.40;;;;;;5135839;27;20205;-48
2021/04/11 09:13:32;;;;;;;1999.90;999.90;;;30.00;42.70;;;;;;5132628;27;20210;-46
2021/04/11 09:16:16;;;;;;;1999.90;999.90;;;30.40;41.30;;;;;;5135710;27;20241;-46
2021/04/11 09:19:02;;;;;;;1999.90;999.90;;;30.00;41.50;;;;;;5135426;27;20266;-45
2021/04/11 09:21:55;;;;;;;1999.90;999.90;;;30.50;41.60;;;;;;5135613;27;20159;-46
2021/04/11 09:24:41;;;;;;;1999.90;999.90;;;30.30;41.50;;;;;;5124619;27;20178;-46
2021/04/11 09:27:26;;;;;;;1999.90;999.90;;;30.40;42.60;;;;;;5134704;27;20147;-46
2021/04/11 09:30:05;;;;;;;1999.90;999.90;;;30.50;42.30;;;;;;5135504;27;20161;-46
2021/04/11 09:32:49;;;;;;;1999.90;999.90;;;30.80;41.00;;;;;;5135369;27;20198;-46
2021/04/11 09:35:35;;;;;;;1999.90;999.90;;;30.90;40.80;;;;;;5135384;27;20154;-45
2021/04/11 09:38:26;;;;;;;1999.90;999.90;;;31.40;40.80;;;;;;5135269;27;20211;-46
2021/04/11 09:41:14;;;;;;;1999.90;999.90;;;30.90;40.10;;;;;;5135300;27;20170;-46
2021/04/11 09:43:44;;;;;;;1999.90;999.90;;;30.60;41.10;;;;;;5135218;27;20194;-48
2021/04/11 09:46:32;;;;;;;1999.90;999.90;;;30.30;40.50;;;;;;5135127;27;20599;-45
2021/04/11 09:49:02;;;;;;;1999.90;999.90;;;30.40;41.00;;;;;;5135222;27;20190;-47
2021/04/11 09:52:05;;;;;;;1999.90;999.90;;;30.80;41.20;;;;;;5134790;27;20186;-46
2021/04/11 09:54:44;;;;;;;1999.90;999.90;;;31.10;40.70;;;;;;5134859;27;20158;-46
2021/04/11 09:57:18;;;;;;;1999.90;999.90;;;31.30;40.00;;;;;;5134711;27;20165;-45
2021/04/11 10:00:14;;;;;;;1999.90;999.90;;;31.60;38.90;;;;;;5134790;27;20177;-45
2021/04/11 10:02:56;;;;;;;1999.90;999.90;;;31.20;39.40;;;;;;5134596;27;20159;-45
2021/04/11 10:05:49;;;;;;;1999.90;999.90;;;30.90;38.60;;;;;;5134897;27;20159;-49
2021/04/11 10:08:33;;;;;;;1999.90;999.90;;;31.20;38.10;;;;;;5106971;27;20179;-47
2021/04/11 10:11:15;;;;;;;1999.90;999.90;;;31.50;37.80;;;;;;5134859;27;20286;-46
2021/04/11 10:14:17;;;;;;;1999.90;999.90;;;31.90;37.10;;;;;;5134419;27;20197;-45
2021/04/11 10:17:17;;;;;;;1999.90;999.90;;;32.10;35.90;;;;;;5133998;27;20323;-46
2021/04/11 10:20:10;;;;;;;1999.90;999.90;;;32.30;36.20;;;;;;5134292;27;20680;-46
2021/04/11 10:22:52;;;;;;;1999.90;999.90;;;32.40;36.00;;;;;;5134394;27;20170;-46
2021/04/11 10:25:40;;;;;;;1999.90;999.90;;;32.70;34.30;;;;;;5134385;27;20163;-46
2021/04/11 10:28:35;;;;;;;1999.90;999.90;;;32.30;34.90;;;;;;5134322;27;20178;-46
2021/04/11 10:31:16;;;;;;;1999.90;999.90;;;32.10;37.00;;;;;;5134563;27;20162;-45
2021/04/11 10:33:49;;;;;;;1999.90;999.90;;;31.90;37.60;;;;;;5134137;27;20296;-49
2021/04/11 10:36:28;;;;;;;1999.90;999.90;;;32.10;37.30;;;;;;5134238;27;20171;-49
2021/04/11 10:39:26;;;;;;;1999.90;999.90;;;32.10;37.10;;;;;;5134254;27;20166;-46
2021/04/11 10:42:34;;;;;;;1999.90;999.90;;;32.30;37.40;;;;;;5134316;27;20162;-50
2021/04/11 10:45:16;;;;;;;1999.90;999.90;;;32.60;36.30;;;;;;5125890;27;20573;-49
2021/04/11 10:48:18;;;;;;;1999.90;999.90;;;32.10;36.30;;;;;;5134000;27;20615;-46
2021/04/11 10:51:13;;;;;;;1999.90;999.90;;;32.40;36.10;;;;;;5133913;27;20166;-47
2021/04/11 10:54:01;;;;;;;1999.90;999.90;;;32.60;36.70;;;;;;5133764;27;20229;-47
2021/04/11 10:56:48;;;;;;;1999.90;999.90;;;32.60;37.10;;;;;;5134071;27;20673;-49
2021/04/11 10:59:52;;;;;;;1999.90;999.90;;;32.60;37.80;;;;;;5133957;27;20169;-47
2021/04/11 11:02:33;;;;;;;1999.90;999.90;;;32.80;37.00;;;;;;5133840;27;20204;-51
2021/04/11 11:05:11;;;;;;;1999.90;999.90;;;32.60;36.70;;;;;;5134175;27;20159;-46
2021/04/11 11:08:08;;;;;;;1999.90;999.90;;;32.50;37.00;;;;;;5134156;27;20610;-50
2021/04/11 11:10:45;;;;;;;1999.90;999.90;;;32.60;37.10;;;;;;5133699;27;20166;-46
2021/04/11 11:13:32;;;;;;;1999.90;999.90;;;32.70;36.80;;;;;;5133834;27;20703;-47
2021/04/11 11:16:27;;;;;;;1999.90;999.90;;;32.60;36.60;;;;;;5134087;27;20157;-46
2021/04/11 11:19:23;;;;;;;1999.90;999.90;;;32.80;36.90;;;;;;5133562;27;20242;-46
2021/04/11 11:22:11;;;;;;;1999.90;999.90;;;32.90;36.50;;;;;;5133729;27;20239;-46
2021/04/11 11:25:03;;;;;;;1999.90;999.90;;;33.10;36.00;;;;;;5133738;27;20155;-47
2021/04/11 11:27:45;;;;;;;1999.90;999.90;;;33.20;35.70;;;;;;5133886;27;20151;-45
2021/04/11 11:30:43;;;;;;;1999.90;999.90;;;33.10;35.60;;;;;;5133690;27;20165;-45
2021/04/11 11:33:35;;;;;;;1999.90;999.90;;;32.90;35.60;;;;;;5133596;27;20671;-47
2021/04/11 11:36:08;;;;;;;1999.90;999.90;;;32.60;36.10;;;;;;5133473;28;20185;-45
2021/04/11 11:38:52;;;;;;;1999.90;999.90;;;32.40;37.00;;;;;;5133545;27;20202;-48
2021/04/11 11:41:43;;;;;;;1999.90;999.90;;;32.50;36.90;;;;;;5133631;27;20161;-46
2021/04/11 11:44:19;;;;;;;1999.90;999.90;;;32.40;36.70;;;;;;5133637;27;20514;-49
2021/04/11 11:47:13;;;;;;;1999.90;999.90;;;32.30;36.60;;;;;;5133514;27;20573;-50
2021/04/11 11:50:09;;;;;;;1999.90;999.90;;;32.20;36.50;;;;;;5135012;27;20158;-47
2021/04/11 11:52:48;;;;;;;1999.90;999.90;;;31.90;37.30;;;;;;5137439;27;20258;-49
2021/04/11 11:55:23;;;;;;;1999.90;999.90;;;31.90;37.60;;;;;;5137451;27;20147;-50
2021/04/11 11:58:19;;;;;;;1999.90;999.90;;;31.90;37.70;;;;;;5137363;27;20162;-46
2021/04/11 12:01:00;;;;;;;1999.90;999.90;;;31.90;37.60;;;;;;5137524;27;20155;-51
2021/04/11 12:03:33;;;;;;;1999.90;999.90;;;32.00;37.50;;;;;;5136105;27;20171;-49
2021/04/11 12:06:23;;;;;;;1999.90;999.90;;;32.10;38.30;;;;;;5136252;27;20178;-47
2021/04/11 12:09:25;;;;;;;1999.90;999.90;;;32.20;37.70;;;;;;5137380;27;20237;-47
2021/04/11 12:12:06;;;;;;;1999.90;999.90;;;32.50;36.50;;;;;;5137234;27;20161;-48
2021/04/11 12:14:53;;;;;;;1999.90;999.90;;;32.60;36.70;;;;;;5137202;27;20199;-48
2021/04/11 12:17:42;;;;;;;1999.90;999.90;;;32.70;35.90;;;;;;5136909;27;20246;-45
2021/04/11 12:20:16;;;;;;;1999.90;999.90;;;32.60;35.80;;;;;;5136699;27;20229;-47
2021/04/11 12:22:57;;;;;;;1999.90;999.90;;;32.70;36.20;;;;;;5136751;27;20159;-51
2021/04/11 12:25:30;;;;;;;1999.90;999.90;;;32.50;36.30;;;;;;5136705;27;20631;-47
2021/04/11 12:28:08;;;;;;;1999.90;999.90;;;32.30;36.60;;;;;;5136753;27;20155;-47
2021/04/11 12:30:38;;;;;;;1999.90;999.90;;;32.30;36.40;;;;;;5136780;27;20169;-46
2021/04/11 12:33:20;;;;;;;1999.90;999.90;;;32.40;35.70;;;;;;5136455;27;20265;-48
2021/04/11 12:36:05;;;;;;;1999.90;999.90;;;32.50;35.50;;;;;;5135179;27;20162;-51
2021/04/11 12:38:49;;;;;;;1999.90;999.90;;;32.40;35.40;;;;;;5136557;27;20154;-49
2021/04/11 12:41:25;;;;;;;1999.90;999.90;;;32.00;35.80;;;;;;5136772;27;20571;-51
2021/04/11 12:44:15;;;;;;;1999.90;999.90;;;31.70;36.00;;;;;;5136103;27;20240;-50
2021/04/11 12:47:20;;;;;;;1999.90;999.90;;;31.80;36.10;;;;;;5136213;27;20163;-47
2021/04/11 12:50:24;;;;;;;1999.90;999.90;;;31.50;36.30;;;;;;5136297;27;20668;-48
2021/04/11 12:53:22;;;;;;;1999.90;999.90;;;31.30;36.50;;;;;;5136050;27;20205;-51
2021/04/11 12:55:54;;;;;;;1999.90;999.90;;;31.30;36.30;;;;;;5136139;27;20200;-50
2021/04/11 12:58:35;;;;;;;1999.90;999.90;;;31.10;36.70;;;;;;5136003;27;20195;-51
2021/04/11 13:01:22;;;;;;;1999.90;999.90;;;31.00;37.00;;;;;;5134715;27;20211;-48
2021/04/11 13:04:00;;;;;;;1999.90;999.90;;;30.90;37.00;;;;;;5135878;27;20181;-47